Time;durP1;ratioP1;P1;durP2;ratioP2;P2;SDS_P1;SDS_P2;PMS_P1;PMS_P2;Temp;Humidity;BMP_temperature;BMP_pressure;BME280_temperature;BME280_humidity;BME280_pressure;Samples;Min_cycle;Max_cycle;Signal;HPM_P1;HPM_P2
2024/03/22 00:02:51;;;;;;;8.25;6.82;;;;;;;;;;10278623;28;20092;-57
2024/03/22 00:07:49;;;;;;;7.60;6.80;;;;;;;;;;10274375;28;20076;-58
2024/03/22 00:12:46;;;;;;;7.90;7.10;;;;;;;;;;10276855;28;20197;-58
2024/03/22 00:17:44;;;;;;;8.63;7.32;;;;;;;;;;10277556;28;20060;-59
2024/03/22 00:22:43;;;;;;;8.13;7.25;;;;;;;;;;10284147;28;20076;-58
2024/03/22 00:27:40;;;;;;;8.20;7.40;;;;;;;;;;10290187;28;20068;-58
2024/03/22 00:32:37;;;;;;;8.20;7.40;;;;;;;;;;10276830;28;20093;-60
2024/03/22 00:37:35;;;;;;;8.70;7.90;;;;;;;;;;10275969;28;20077;-58
2024/03/22 00:42:34;;;;;;;8.98;8.00;;;;;;;;;;10276933;28;20068;-58
2024/03/22 00:47:31;;;;;;;7.45;6.75;;;;;;;;;;10296339;28;20064;-59
2024/03/22 00:52:29;;;;;;;39.75;26.42;;;;;;;;;;10275462;28;20538;-58
2024/03/22 00:57:26;;;;;;;12.23;9.50;;;;;;;;;;10283623;28;20064;-58
2024/03/22 01:02:25;;;;;;;10.70;8.02;;;;;;;;;;10277948;28;20071;-57
2024/03/22 01:07:22;;;;;;;8.30;6.95;;;;;;;;;;10274951;28;20064;-59
2024/03/22 01:12:20;;;;;;;7.30;6.60;;;;;;;;;;10281393;28;20083;-60
2024/03/22 01:17:17;;;;;;;7.25;6.45;;;;;;;;;;10276913;28;20061;-58
2024/03/22 01:22:16;;;;;;;8.90;7.65;;;;;;;;;;10274301;28;20064;-60
2024/03/22 01:27:13;;;;;;;8.60;7.43;;;;;;;;;;10274772;28;20068;-59
2024/03/22 01:32:11;;;;;;;9.98;6.90;;;;;;;;;;10274138;28;20060;-58
2024/03/22 01:37:09;;;;;;;7.55;6.72;;;;;;;;;;10287757;28;20127;-59
2024/03/22 01:42:07;;;;;;;8.48;6.00;;;;;;;;;;10288979;28;20068;-59
2024/03/22 01:47:05;;;;;;;7.53;6.72;;;;;;;;;;10288008;28;20068;-59
2024/03/22 01:52:03;;;;;;;7.20;6.50;;;;;;;;;;10286669;28;20072;-59
2024/03/22 01:57:01;;;;;;;5.78;5.10;;;;;;;;;;10287142;28;20090;-57
2024/03/22 02:02:00;;;;;;;8.52;5.47;;;;;;;;;;10292633;28;20072;-58
2024/03/22 02:06:57;;;;;;;5.80;5.20;;;;;;;;;;10288104;28;20081;-56
2024/03/22 02:11:55;;;;;;;10.43;7.03;;;;;;;;;;10293422;28;20094;-60
2024/03/22 02:16:52;;;;;;;7.28;6.57;;;;;;;;;;10291440;28;20075;-59
2024/03/22 02:21:51;;;;;;;7.10;6.07;;;;;;;;;;10294469;28;20075;-57
2024/03/22 02:26:50;;;;;;;6.88;6.28;;;;;;;;;;10287917;28;20075;-57
2024/03/22 02:31:47;;;;;;;6.55;5.95;;;;;;;;;;10287098;28;20486;-59
2024/03/22 02:36:46;;;;;;;7.45;6.70;;;;;;;;;;10295179;28;20466;-59
2024/03/22 02:41:43;;;;;;;6.82;6.15;;;;;;;;;;10289479;28;20076;-58
2024/03/22 02:46:42;;;;;;;6.78;6.18;;;;;;;;;;10288292;28;20071;-58
2024/03/22 02:51:40;;;;;;;9.23;8.23;;;;;;;;;;10282080;28;20065;-58
2024/03/22 02:56:37;;;;;;;6.85;6.15;;;;;;;;;;10301981;28;20063;-59
2024/03/22 03:01:34;;;;;;;17.45;7.85;;;;;;;;;;10279240;28;20521;-60
2024/03/22 03:06:33;;;;;;;24.23;8.02;;;;;;;;;;10278554;28;20088;-59
2024/03/22 03:11:31;;;;;;;23.30;7.80;;;;;;;;;;10280413;28;20091;-58
2024/03/22 03:16:28;;;;;;;48.47;9.48;;;;;;;;;;10277884;28;20536;-59
2024/03/22 03:21:26;;;;;;;32.28;7.75;;;;;;;;;;10278902;28;20080;-59
2024/03/22 03:26:24;;;;;;;62.55;10.48;;;;;;;;;;10280185;28;20065;-59
2024/03/22 03:31:22;;;;;;;52.83;9.05;;;;;;;;;;10298633;28;20083;-57
2024/03/22 03:36:19;;;;;;;97.13;10.18;;;;;;;;;;10279197;28;20048;-57
2024/03/22 03:41:17;;;;;;;76.53;13.57;;;;;;;;;;10284042;28;20532;-58
2024/03/22 03:46:15;;;;;;;21.13;12.20;;;;;;;;;;10278238;28;20084;-59
2024/03/22 03:51:13;;;;;;;27.05;13.82;;;;;;;;;;10281310;28;20535;-59
2024/03/22 03:56:10;;;;;;;66.63;11.68;;;;;;;;;;10296064;28;20076;-57
2024/03/22 04:01:08;;;;;;;64.18;15.63;;;;;;;;;;10279445;28;20064;-58
2024/03/22 04:06:07;;;;;;;54.65;26.65;;;;;;;;;;10275683;28;20461;-57
2024/03/22 04:11:05;;;;;;;40.42;24.00;;;;;;;;;;10276485;28;20567;-59
2024/03/22 04:16:02;;;;;;;39.85;25.45;;;;;;;;;;10278205;28;20102;-58
2024/03/22 04:21:01;;;;;;;27.67;16.02;;;;;;;;;;10277162;28;20075;-60
2024/03/22 04:26:01;;;;;;;37.95;15.75;;;;;;;;;;10276510;28;20079;-59
2024/03/22 04:30:59;;;;;;;23.25;15.60;;;;;;;;;;10275900;28;20075;-59
2024/03/22 04:35:57;;;;;;;27.95;15.77;;;;;;;;;;10276865;28;20544;-57
2024/03/22 04:40:56;;;;;;;41.55;15.43;;;;;;;;;;10283883;28;20529;-58
2024/03/22 04:45:54;;;;;;;35.55;17.45;;;;;;;;;;10275765;28;20076;-57
2024/03/22 04:50:52;;;;;;;42.35;19.92;;;;;;;;;;10285593;28;20068;-57
2024/03/22 04:55:51;;;;;;;62.28;19.52;;;;;;;;;;10282768;28;20136;-57
2024/03/22 05:00:49;;;;;;;56.53;19.25;;;;;;;;;;10276492;28;20570;-58
2024/03/22 05:05:47;;;;;;;29.67;21.13;;;;;;;;;;10283019;28;20083;-57
2024/03/22 05:10:45;;;;;;;43.75;19.45;;;;;;;;;;10274037;28;20085;-58
2024/03/22 05:15:42;;;;;;;44.10;23.75;;;;;;;;;;10290310;28;20473;-58
2024/03/22 05:20:40;;;;;;;34.28;16.30;;;;;;;;;;10277637;28;20673;-59
2024/03/22 05:25:39;;;;;;;53.63;19.52;;;;;;;;;;10274202;28;20087;-57
2024/03/22 05:30:36;;;;;;;54.22;24.50;;;;;;;;;;10263318;28;20072;-59
2024/03/22 05:35:33;;;;;;;32.55;18.48;;;;;;;;;;10279033;28;20073;-59
2024/03/22 05:40:32;;;;;;;31.50;20.83;;;;;;;;;;10278710;28;20068;-58
2024/03/22 05:45:31;;;;;;;29.35;19.70;;;;;;;;;;10275724;28;20501;-59
2024/03/22 05:50:28;;;;;;;21.17;15.88;;;;;;;;;;10276613;28;20080;-58
2024/03/22 05:55:31;;;;;;;20.83;15.05;;;;;;;;;;10277557;28;20060;-57
2024/03/22 06:00:28;;;;;;;17.63;14.18;;;;;;;;;;10273480;28;20540;-58
2024/03/22 06:05:27;;;;;;;17.98;14.73;;;;;;;;;;10274455;28;20095;-55
2024/03/22 06:10:24;;;;;;;22.70;15.90;;;;;;;;;;10269885;28;20085;-58
2024/03/22 06:15:22;;;;;;;25.67;17.20;;;;;;;;;;10243968;28;20072;-58
2024/03/22 06:20:19;;;;;;;23.88;18.05;;;;;;;;;;10254084;28;20079;-59
2024/03/22 06:25:18;;;;;;;31.77;21.83;;;;;;;;;;10252606;28;20904;-57
2024/03/22 06:30:16;;;;;;;91.57;51.92;;;;;;;;;;10254580;28;20538;-57
2024/03/22 06:35:13;;;;;;;20.63;15.63;;;;;;;;;;10240351;28;20065;-59
2024/03/22 06:40:11;;;;;;;28.10;18.38;;;;;;;;;;10254132;28;20072;-57
2024/03/22 06:45:10;;;;;;;22.77;16.38;;;;;;;;;;10248911;28;20088;-53
2024/03/22 06:50:08;;;;;;;17.45;13.80;;;;;;;;;;10247928;28;20072;-58
2024/03/22 06:55:06;;;;;;;18.98;14.43;;;;;;;;;;10249344;28;20088;-58
2024/03/22 07:00:04;;;;;;;19.10;14.95;;;;;;;;;;10255714;28;20061;-57
2024/03/22 07:05:03;;;;;;;12.82;11.52;;;;;;;;;;10259184;28;20069;-60
2024/03/22 07:10:01;;;;;;;13.80;12.40;;;;;;;;;;10255051;28;20080;-58
2024/03/22 07:14:58;;;;;;;21.17;16.92;;;;;;;;;;10248677;28;20067;-60
2024/03/22 07:19:57;;;;;;;20.88;16.20;;;;;;;;;;10245512;28;20494;-58
2024/03/22 07:24:56;;;;;;;22.98;17.05;;;;;;;;;;10243632;28;20087;-58
2024/03/22 07:29:53;;;;;;;18.73;13.25;;;;;;;;;;10226335;28;20076;-58
2024/03/22 07:34:50;;;;;;;20.85;14.38;;;;;;;;;;10240095;28;20073;-58
2024/03/22 07:39:48;;;;;;;33.92;21.90;;;;;;;;;;10241429;28;20071;-58
2024/03/22 07:44:47;;;;;;;20.75;13.20;;;;;;;;;;10249345;28;20088;-57
2024/03/22 07:49:44;;;;;;;13.55;11.95;;;;;;;;;;10248906;28;20083;-57
2024/03/22 07:54:42;;;;;;;49.25;32.17;;;;;;;;;;10243940;28;20082;-58
2024/03/22 07:59:39;;;;;;;16.90;13.50;;;;;;;;;;10240175;28;20474;-59
2024/03/22 08:04:38;;;;;;;22.35;16.27;;;;;;;;;;10241387;28;20068;-58
2024/03/22 08:09:35;;;;;;;15.48;13.73;;;;;;;;;;10237379;28;20754;-56
2024/03/22 08:14:33;;;;;;;19.30;15.45;;;;;;;;;;10245317;28;20073;-58
2024/03/22 08:19:30;;;;;;;20.88;15.02;;;;;;;;;;10254314;28;20065;-57
2024/03/22 08:24:29;;;;;;;16.40;12.77;;;;;;;;;;10254437;28;20166;-58
2024/03/22 08:29:26;;;;;;;21.20;15.00;;;;;;;;;;10252820;28;20126;-56
2024/03/22 08:34:24;;;;;;;14.23;12.52;;;;;;;;;;10252560;28;20088;-58
2024/03/22 08:39:21;;;;;;;15.02;13.38;;;;;;;;;;10251588;28;20095;-57
2024/03/22 08:44:20;;;;;;;13.55;11.10;;;;;;;;;;10250779;28;20069;-59
2024/03/22 08:49:19;;;;;;;11.40;10.30;;;;;;;;;;10260634;28;20514;-59
2024/03/22 08:54:16;;;;;;;14.18;12.80;;;;;;;;;;10257327;28;20068;-59
2024/03/22 08:59:13;;;;;;;16.63;12.00;;;;;;;;;;10250947;28;20175;-57
2024/03/22 09:04:12;;;;;;;21.13;13.48;;;;;;;;;;10251104;28;20483;-58
2024/03/22 09:09:11;;;;;;;12.75;11.30;;;;;;;;;;10251956;28;20064;-58
2024/03/22 09:14:08;;;;;;;13.15;11.75;;;;;;;;;;10253008;28;20081;-58
2024/03/22 09:19:05;;;;;;;19.08;11.38;;;;;;;;;;10245642;28;20076;-59
2024/03/22 09:24:05;;;;;;;14.32;10.40;;;;;;;;;;10252286;28;20073;-59
2024/03/22 09:29:03;;;;;;;9.43;8.25;;;;;;;;;;10256504;28;20489;-57
2024/03/22 09:34:01;;;;;;;8.68;7.32;;;;;;;;;;10255312;28;20393;-60
2024/03/22 09:38:58;;;;;;;8.88;6.88;;;;;;;;;;10257481;28;20494;-59
2024/03/22 09:43:58;;;;;;;9.55;8.40;;;;;;;;;;10251390;28;20152;-59
2024/03/22 09:48:58;;;;;;;8.88;7.25;;;;;;;;;;10248921;28;20087;-60
2024/03/22 09:53:56;;;;;;;6.82;6.13;;;;;;;;;;10250885;28;20076;-59
2024/03/22 09:58:53;;;;;;;8.35;7.55;;;;;;;;;;10256772;28;20076;-58
2024/03/22 10:03:54;;;;;;;8.10;7.30;;;;;;;;;;10264685;28;20079;-58
2024/03/22 10:08:53;;;;;;;7.55;6.85;;;;;;;;;;10266115;28;20069;-59
2024/03/22 10:13:51;;;;;;;7.55;6.85;;;;;;;;;;10291724;28;20076;-58
2024/03/22 10:18:49;;;;;;;8.73;7.68;;;;;;;;;;10281345;28;20078;-58
2024/03/22 10:23:48;;;;;;;9.90;7.78;;;;;;;;;;10285518;28;20081;-59
2024/03/22 10:28:46;;;;;;;7.82;7.03;;;;;;;;;;10282354;28;20079;-58
2024/03/22 10:33:45;;;;;;;7.47;6.60;;;;;;;;;;10280057;28;20069;-58
2024/03/22 10:38:44;;;;;;;8.35;7.07;;;;;;;;;;10285042;28;20072;-59
2024/03/22 10:43:43;;;;;;;24.90;8.30;;;;;;;;;;10278977;28;20076;-59
2024/03/22 10:48:41;;;;;;;6.80;5.82;;;;;;;;;;10284523;28;20114;-59
2024/03/22 10:53:40;;;;;;;8.70;7.65;;;;;;;;;;10287546;28;20164;-59
2024/03/22 10:58:40;;;;;;;6.95;6.25;;;;;;;;;;10288152;28;20548;-60
2024/03/22 11:03:42;;;;;;;7.35;6.65;;;;;;;;;;10279119;28;20095;-57
2024/03/22 11:08:40;;;;;;;8.25;6.97;;;;;;;;;;10278486;28;20090;-59
2024/03/22 11:13:37;;;;;;;6.35;5.80;;;;;;;;;;10286674;28;20076;-58
2024/03/22 11:18:35;;;;;;;7.00;5.55;;;;;;;;;;10284437;28;20095;-58
2024/03/22 11:23:34;;;;;;;7.10;5.90;;;;;;;;;;10286274;28;20068;-59
2024/03/22 11:28:32;;;;;;;7.93;5.88;;;;;;;;;;10280427;28;20064;-59
2024/03/22 11:33:31;;;;;;;6.85;6.13;;;;;;;;;;10280038;28;20513;-59
2024/03/22 11:38:30;;;;;;;7.10;6.40;;;;;;;;;;10274791;28;20065;-59
2024/03/22 11:43:29;;;;;;;7.75;6.18;;;;;;;;;;10280728;28;20076;-59
2024/03/22 11:48:27;;;;;;;13.05;8.23;;;;;;;;;;10279696;28;20079;-58
2024/03/22 11:53:24;;;;;;;6.85;6.13;;;;;;;;;;10277669;28;20083;-60
2024/03/22 11:58:22;;;;;;;15.27;13.15;;;;;;;;;;10282614;28;20083;-59
2024/03/22 12:03:21;;;;;;;7.35;6.65;;;;;;;;;;10285668;28;20079;-59
2024/03/22 12:08:18;;;;;;;7.78;6.70;;;;;;;;;;10278733;28;20068;-58
2024/03/22 12:13:16;;;;;;;9.75;8.75;;;;;;;;;;10277806;28;20052;-58
2024/03/22 12:18:13;;;;;;;7.03;6.05;;;;;;;;;;10282189;28;20104;-59
2024/03/22 12:23:12;;;;;;;8.27;7.30;;;;;;;;;;10277176;28;20067;-59
2024/03/22 12:28:10;;;;;;;7.35;6.63;;;;;;;;;;10276120;28;20087;-57
2024/03/22 12:33:10;;;;;;;6.78;6.00;;;;;;;;;;10281406;28;20563;-58
2024/03/22 12:38:09;;;;;;;11.65;7.43;;;;;;;;;;10281918;28;20084;-58
2024/03/22 12:43:10;;;;;;;8.02;7.22;;;;;;;;;;10280002;28;20555;-58
2024/03/22 12:48:07;;;;;;;7.43;6.50;;;;;;;;;;10281349;28;20065;-57
2024/03/22 12:53:04;;;;;;;6.82;6.20;;;;;;;;;;10275805;28;20072;-59
2024/03/22 12:58:02;;;;;;;6.85;6.25;;;;;;;;;;10274540;28;20068;-60
2024/03/22 13:03:02;;;;;;;7.65;6.70;;;;;;;;;;10283978;28;20064;-59
2024/03/22 13:07:59;;;;;;;7.70;6.75;;;;;;;;;;10274636;28;20080;-59
2024/03/22 13:12:57;;;;;;;9.45;7.35;;;;;;;;;;10252344;28;20543;-58
2024/03/22 13:17:56;;;;;;;8.00;6.55;;;;;;;;;;10251147;28;20087;-58
2024/03/22 13:22:54;;;;;;;6.75;6.05;;;;;;;;;;10259637;28;20073;-58
2024/03/22 13:27:52;;;;;;;8.68;7.75;;;;;;;;;;10250854;28;20539;-59
2024/03/22 13:32:49;;;;;;;6.30;5.70;;;;;;;;;;10250231;28;20072;-59
2024/03/22 13:37:47;;;;;;;10.60;8.30;;;;;;;;;;10249819;28;20077;-58
2024/03/22 13:42:46;;;;;;;8.07;7.28;;;;;;;;;;10250212;28;20076;-59
2024/03/22 13:47:43;;;;;;;7.80;6.82;;;;;;;;;;10258553;28;20069;-59
2024/03/22 13:52:41;;;;;;;8.80;7.90;;;;;;;;;;10249998;28;20120;-59
2024/03/22 13:57:38;;;;;;;7.43;6.28;;;;;;;;;;10253319;28;20073;-59
2024/03/22 14:02:37;;;;;;;8.10;6.85;;;;;;;;;;10248468;28;20061;-58
2024/03/22 14:07:34;;;;;;;8.02;6.85;;;;;;;;;;10251482;28;20110;-58
2024/03/22 14:12:32;;;;;;;8.05;6.80;;;;;;;;;;10270086;28;20076;-57
2024/03/22 14:17:29;;;;;;;11.15;6.30;;;;;;;;;;10274180;28;20060;-58
2024/03/22 14:22:28;;;;;;;7.15;6.00;;;;;;;;;;10273481;28;20595;-60
2024/03/22 14:27:25;;;;;;;20.27;13.30;;;;;;;;;;10273729;28;20075;-57
2024/03/22 14:32:22;;;;;;;8.95;8.02;;;;;;;;;;10272447;28;20532;-59
2024/03/22 14:37:20;;;;;;;7.18;6.47;;;;;;;;;;10272594;28;20063;-59
2024/03/22 14:42:19;;;;;;;6.93;6.20;;;;;;;;;;10277452;28;20083;-59
2024/03/22 14:47:16;;;;;;;8.60;6.78;;;;;;;;;;10282773;28;20083;-59
2024/03/22 14:52:14;;;;;;;8.50;7.28;;;;;;;;;;10280747;28;20072;-59
2024/03/22 14:57:11;;;;;;;8.68;7.07;;;;;;;;;;10284713;28;20536;-59
2024/03/22 15:02:10;;;;;;;9.35;8.35;;;;;;;;;;10280086;28;20548;-58
2024/03/22 15:07:08;;;;;;;7.43;6.63;;;;;;;;;;10289665;28;20075;-59
2024/03/22 15:12:05;;;;;;;8.60;6.20;;;;;;;;;;10286311;28;20534;-59
2024/03/22 15:17:03;;;;;;;6.13;5.53;;;;;;;;;;10279427;28;20087;-59
2024/03/22 15:22:02;;;;;;;6.65;6.05;;;;;;;;;;10281088;28;20476;-58
2024/03/22 15:26:59;;;;;;;22.25;17.15;;;;;;;;;;10292259;28;20068;-58
2024/03/22 15:31:57;;;;;;;9.95;7.65;;;;;;;;;;10289176;28;20072;-59
2024/03/22 15:36:54;;;;;;;11.30;9.35;;;;;;;;;;10278493;28;20075;-56
2024/03/22 15:41:53;;;;;;;9.98;7.18;;;;;;;;;;10277967;28;20498;-58
2024/03/22 15:46:51;;;;;;;8.43;7.28;;;;;;;;;;10274241;28;20079;-59
2024/03/22 15:51:48;;;;;;;26.92;23.15;;;;;;;;;;10272922;28;20072;-59
2024/03/22 15:56:46;;;;;;;29.63;21.23;;;;;;;;;;10274355;28;20514;-59
2024/03/22 16:01:45;;;;;;;16.20;13.45;;;;;;;;;;10273191;28;20118;-59
2024/03/22 16:06:42;;;;;;;8.73;7.80;;;;;;;;;;10273798;28;20064;-57
2024/03/22 16:11:40;;;;;;;9.60;7.55;;;;;;;;;;10272343;28;20640;-59
2024/03/22 16:16:37;;;;;;;15.75;11.57;;;;;;;;;;10276875;28;20450;-59
2024/03/22 16:21:36;;;;;;;8.25;7.20;;;;;;;;;;10274185;28;20061;-58
2024/03/22 16:26:34;;;;;;;8.98;7.82;;;;;;;;;;10276261;28;20903;-59
2024/03/22 16:31:32;;;;;;;8.15;7.30;;;;;;;;;;10287779;28;20052;-59
2024/03/22 16:36:29;;;;;;;9.90;7.70;;;;;;;;;;10287015;28;20075;-58
2024/03/22 16:41:28;;;;;;;12.73;8.35;;;;;;;;;;10279165;28;20068;-58
2024/03/22 16:46:25;;;;;;;8.43;6.82;;;;;;;;;;10272739;28;20071;-59
2024/03/22 16:51:23;;;;;;;9.55;7.43;;;;;;;;;;10280747;28;20072;-58
2024/03/22 16:56:20;;;;;;;14.00;8.45;;;;;;;;;;10269253;28;20048;-58
2024/03/22 17:01:19;;;;;;;9.52;6.47;;;;;;;;;;10277771;28;20548;-58
2024/03/22 17:06:17;;;;;;;8.23;6.68;;;;;;;;;;10272477;28;20925;-58
2024/03/22 17:11:14;;;;;;;9.15;7.32;;;;;;;;;;10280391;28;20092;-58
2024/03/22 17:16:11;;;;;;;9.13;8.23;;;;;;;;;;10292018;28;20036;-55
2024/03/22 17:21:10;;;;;;;11.85;9.15;;;;;;;;;;10276446;28;20064;-56
2024/03/22 17:26:08;;;;;;;11.30;8.07;;;;;;;;;;10279534;28;20075;-58
2024/03/22 17:31:05;;;;;;;8.95;7.40;;;;;;;;;;10277418;28;20068;-56
2024/03/22 17:36:03;;;;;;;9.25;7.68;;;;;;;;;;10280126;28;20064;-58
2024/03/22 17:41:02;;;;;;;8.27;7.40;;;;;;;;;;10283584;28;20072;-54
2024/03/22 17:46:00;;;;;;;8.10;7.20;;;;;;;;;;10281389;28;20060;-57
2024/03/22 17:50:57;;;;;;;9.70;6.55;;;;;;;;;;10287217;28;20065;-58
2024/03/22 17:55:55;;;;;;;8.30;6.97;;;;;;;;;;10281968;28;20071;-57
2024/03/22 18:00:54;;;;;;;8.23;7.43;;;;;;;;;;10292319;28;21290;-58
2024/03/22 18:05:52;;;;;;;7.88;7.07;;;;;;;;;;10288387;28;20060;-60
2024/03/22 18:10:49;;;;;;;11.82;8.20;;;;;;;;;;10284341;28;20079;-57
2024/03/22 18:15:47;;;;;;;11.23;9.70;;;;;;;;;;10281982;28;20064;-59
2024/03/22 18:20:48;;;;;;;8.70;7.90;;;;;;;;;;10281596;28;20084;-58
2024/03/22 18:25:47;;;;;;;7.28;6.57;;;;;;;;;;10285758;28;20079;-61
2024/03/22 18:30:46;;;;;;;7.03;6.28;;;;;;;;;;10283869;28;20076;-59
2024/03/22 18:35:43;;;;;;;6.95;6.20;;;;;;;;;;10279611;28;20067;-58
2024/03/22 18:40:42;;;;;;;6.30;5.70;;;;;;;;;;10282016;28;20040;-58
2024/03/22 18:45:39;;;;;;;7.65;6.32;;;;;;;;;;10280402;28;20087;-60
2024/03/22 18:50:37;;;;;;;7.40;6.57;;;;;;;;;;10281741;28;20067;-58
2024/03/22 18:55:34;;;;;;;8.25;7.32;;;;;;;;;;10278135;28;20087;-59
2024/03/22 19:00:35;;;;;;;7.47;5.32;;;;;;;;;;10279868;28;20068;-59
2024/03/22 19:05:33;;;;;;;7.47;6.35;;;;;;;;;;10281144;28;20068;-59
2024/03/22 19:10:31;;;;;;;6.10;5.50;;;;;;;;;;10284075;28;20083;-58
2024/03/22 19:15:29;;;;;;;7.18;6.47;;;;;;;;;;10282658;28;20087;-59
2024/03/22 19:20:28;;;;;;;8.35;6.90;;;;;;;;;;10289538;28;20072;-59
2024/03/22 19:25:25;;;;;;;8.18;6.43;;;;;;;;;;10284032;28;20076;-58
2024/03/22 19:30:22;;;;;;;6.97;5.60;;;;;;;;;;10282534;28;20064;-56
2024/03/22 19:35:20;;;;;;;6.68;6.07;;;;;;;;;;10290042;28;20071;-58
2024/03/22 19:40:19;;;;;;;7.15;6.32;;;;;;;;;;10279444;28;20076;-59
2024/03/22 19:45:16;;;;;;;7.45;6.75;;;;;;;;;;10279358;28;20068;-57
2024/03/22 19:50:14;;;;;;;7.03;6.32;;;;;;;;;;10277651;28;20088;-59
2024/03/22 19:55:11;;;;;;;6.88;6.18;;;;;;;;;;10282554;28;20068;-58
2024/03/22 20:00:11;;;;;;;10.85;6.82;;;;;;;;;;10258671;28;20077;-59
2024/03/22 20:05:11;;;;;;;6.75;6.05;;;;;;;;;;10284705;28;20072;-59
2024/03/22 20:10:10;;;;;;;8.70;6.70;;;;;;;;;;10283158;28;20496;-59
2024/03/22 20:15:08;;;;;;;7.75;6.88;;;;;;;;;;10279687;28;20508;-58
2024/03/22 20:20:08;;;;;;;7.43;6.72;;;;;;;;;;10286489;28;20072;-57
2024/03/22 20:25:06;;;;;;;7.13;6.32;;;;;;;;;;10278070;28;20075;-58
2024/03/22 20:30:04;;;;;;;8.55;7.00;;;;;;;;;;10276789;28;20728;-58
2024/03/22 20:35:01;;;;;;;7.47;6.78;;;;;;;;;;10276989;28;20072;-58
2024/03/22 20:40:00;;;;;;;9.15;6.90;;;;;;;;;;10294884;28;20061;-57
2024/03/22 20:45:00;;;;;;;10.10;7.78;;;;;;;;;;10283783;28;20557;-55
2024/03/22 20:49:59;;;;;;;8.40;7.50;;;;;;;;;;10285982;28;20099;-57
2024/03/22 20:54:59;;;;;;;6.97;6.28;;;;;;;;;;10282455;28;20057;-57
2024/03/22 20:59:59;;;;;;;10.60;7.60;;;;;;;;;;10283558;28;20060;-57
2024/03/22 21:04:58;;;;;;;6.78;6.00;;;;;;;;;;10284809;28;20071;-58
2024/03/22 21:09:57;;;;;;;7.15;6.45;;;;;;;;;;10286550;28;20140;-57
2024/03/22 21:14:57;;;;;;;6.80;6.15;;;;;;;;;;10242065;28;20075;-55
2024/03/22 21:19:56;;;;;;;7.75;6.35;;;;;;;;;;10239893;28;20080;-56
2024/03/22 21:24:55;;;;;;;7.88;7.07;;;;;;;;;;10237477;28;20061;-58
2024/03/22 21:29:55;;;;;;;9.05;6.57;;;;;;;;;;10225347;28;20546;-57
2024/03/22 21:34:55;;;;;;;6.75;6.05;;;;;;;;;;10234006;28;20152;-57
2024/03/22 21:39:54;;;;;;;7.00;6.30;;;;;;;;;;10226211;28;20061;-57
2024/03/22 21:44:53;;;;;;;7.22;6.50;;;;;;;;;;10237097;28;20068;-57
2024/03/22 21:49:53;;;;;;;6.88;6.28;;;;;;;;;;10235287;28;20470;-54
2024/03/22 21:54:52;;;;;;;6.90;6.20;;;;;;;;;;10240923;28;20085;-56
2024/03/22 21:59:51;;;;;;;7.57;6.03;;;;;;;;;;10248255;28;20080;-57
2024/03/22 22:04:50;;;;;;;6.80;6.13;;;;;;;;;;10239750;28;20072;-55
2024/03/22 22:09:50;;;;;;;9.60;6.63;;;;;;;;;;10240573;28;20064;-58
2024/03/22 22:14:49;;;;;;;7.18;6.45;;;;;;;;;;10281396;28;20068;-58
2024/03/22 22:19:49;;;;;;;7.85;6.55;;;;;;;;;;10284156;28;20068;-59
2024/03/22 22:24:48;;;;;;;7.25;6.57;;;;;;;;;;10279313;28;20494;-59
2024/03/22 22:29:47;;;;;;;7.15;6.53;;;;;;;;;;10282522;28;20080;-59
2024/03/22 22:34:47;;;;;;;9.32;6.22;;;;;;;;;;10281415;28;20079;-58
2024/03/22 22:39:46;;;;;;;12.48;6.90;;;;;;;;;;10281698;28;20076;-58
2024/03/22 22:44:45;;;;;;;9.20;6.05;;;;;;;;;;10282005;28;20447;-59
2024/03/22 22:49:44;;;;;;;6.40;5.80;;;;;;;;;;10286007;28;20076;-58
2024/03/22 22:54:44;;;;;;;6.65;6.05;;;;;;;;;;10288733;28;20072;-59
2024/03/22 22:59:45;;;;;;;7.55;6.85;;;;;;;;;;10278621;28;20092;-58
2024/03/22 23:04:44;;;;;;;7.18;6.47;;;;;;;;;;10284631;28;20064;-59
2024/03/22 23:09:43;;;;;;;7.05;6.35;;;;;;;;;;10279339;28;20075;-59
2024/03/22 23:14:42;;;;;;;7.07;6.05;;;;;;;;;;10285953;28;20094;-59
2024/03/22 23:19:42;;;;;;;6.45;5.85;;;;;;;;;;10281048;28;20065;-59
2024/03/22 23:24:41;;;;;;;7.93;6.80;;;;;;;;;;10283578;28;20079;-60
2024/03/22 23:29:41;;;;;;;7.32;6.63;;;;;;;;;;10283238;28;20111;-59
2024/03/22 23:34:42;;;;;;;7.75;6.80;;;;;;;;;;10278795;28;20068;-59
2024/03/22 23:39:42;;;;;;;7.18;6.47;;;;;;;;;;10288229;28;20060;-59
2024/03/22 23:44:42;;;;;;;7.55;6.70;;;;;;;;;;10279965;28;20521;-60
2024/03/22 23:49:41;;;;;;;7.63;6.03;;;;;;;;;;10279895;28;20133;-60
2024/03/22 23:54:40;;;;;;;6.68;6.07;;;;;;;;;;10279690;28;20076;-59
2024/03/22 23:59:40;;;;;;;8.70;6.82;;;;;;;;;;10286520;28;20549;-59
